sensor_id;sensor_type;location;lat;lon;timestamp;P1;durP1;ratioP1;P2;durP2;ratioP2
42346;SDS011;75728;51.856;6.314;2024-02-26T00:01:27;2.42;;;1.20;;
42346;SDS011;75728;51.856;6.314;2024-02-26T00:03:56;2.72;;;1.23;;
42346;SDS011;75728;51.856;6.314;2024-02-26T00:06:24;3.40;;;1.33;;
42346;SDS011;75728;51.856;6.314;2024-02-26T00:08:50;3.33;;;1.00;;
42346;SDS011;75728;51.856;6.314;2024-02-26T00:11:15;2.50;;;1.15;;
42346;SDS011;75728;51.856;6.314;2024-02-26T00:13:41;2.35;;;1.08;;
42346;SDS011;75728;51.856;6.314;2024-02-26T00:16:07;3.30;;;1.13;;
42346;SDS011;75728;51.856;6.314;2024-02-26T00:18:33;2.00;;;1.13;;
42346;SDS011;75728;51.856;6.314;2024-02-26T00:20:58;2.80;;;1.20;;
42346;SDS011;75728;51.856;6.314;2024-02-26T00:23:25;1.38;;;0.80;;
42346;SDS011;75728;51.856;6.314;2024-02-26T00:25:51;2.08;;;1.15;;
42346;SDS011;75728;51.856;6.314;2024-02-26T00:28:17;2.20;;;1.10;;
42346;SDS011;75728;51.856;6.314;2024-02-26T00:30:44;3.30;;;1.02;;
42346;SDS011;75728;51.856;6.314;2024-02-26T00:33:10;2.22;;;1.15;;
42346;SDS011;75728;51.856;6.314;2024-02-26T00:35:36;2.55;;;1.17;;
42346;SDS011;75728;51.856;6.314;2024-02-26T00:38:02;2.05;;;1.17;;
42346;SDS011;75728;51.856;6.314;2024-02-26T00:40:28;3.67;;;1.40;;
42346;SDS011;75728;51.856;6.314;2024-02-26T00:42:54;1.60;;;1.08;;
42346;SDS011;75728;51.856;6.314;2024-02-26T00:45:19;2.03;;;1.20;;
42346;SDS011;75728;51.856;6.314;2024-02-26T00:47:45;3.08;;;1.08;;
42346;SDS011;75728;51.856;6.314;2024-02-26T00:50:12;1.73;;;0.90;;
42346;SDS011;75728;51.856;6.314;2024-02-26T00:52:38;5.90;;;1.17;;
42346;SDS011;75728;51.856;6.314;2024-02-26T00:55:04;2.65;;;1.15;;
42346;SDS011;75728;51.856;6.314;2024-02-26T00:57:30;3.92;;;1.33;;
42346;SDS011;75728;51.856;6.314;2024-02-26T00:59:55;2.75;;;1.30;;
42346;SDS011;75728;51.856;6.314;2024-02-26T01:02:22;1.70;;;1.08;;
42346;SDS011;75728;51.856;6.314;2024-02-26T01:04:48;2.33;;;1.33;;
42346;SDS011;75728;51.856;6.314;2024-02-26T01:07:13;3.83;;;1.30;;
42346;SDS011;75728;51.856;6.314;2024-02-26T01:09:39;2.95;;;1.10;;
42346;SDS011;75728;51.856;6.314;2024-02-26T01:12:05;2.15;;;1.17;;
42346;SDS011;75728;51.856;6.314;2024-02-26T01:14:31;1.83;;;1.10;;
42346;SDS011;75728;51.856;6.314;2024-02-26T01:16:56;2.63;;;0.98;;
42346;SDS011;75728;51.856;6.314;2024-02-26T01:19:22;2.45;;;1.20;;
42346;SDS011;75728;51.856;6.314;2024-02-26T01:21:47;2.97;;;1.20;;
42346;SDS011;75728;51.856;6.314;2024-02-26T01:24:13;2.03;;;1.17;;
42346;SDS011;75728;51.856;6.314;2024-02-26T01:26:40;2.60;;;1.02;;
42346;SDS011;75728;51.856;6.314;2024-02-26T01:29:06;2.60;;;1.20;;
42346;SDS011;75728;51.856;6.314;2024-02-26T01:31:32;2.58;;;1.23;;
42346;SDS011;75728;51.856;6.314;2024-02-26T01:33:57;2.10;;;1.13;;
42346;SDS011;75728;51.856;6.314;2024-02-26T01:36:23;3.03;;;1.45;;
42346;SDS011;75728;51.856;6.314;2024-02-26T01:38:48;2.35;;;1.00;;
42346;SDS011;75728;51.856;6.314;2024-02-26T01:41:14;1.88;;;1.00;;
42346;SDS011;75728;51.856;6.314;2024-02-26T01:43:40;1.75;;;1.00;;
42346;SDS011;75728;51.856;6.314;2024-02-26T01:46:06;1.88;;;1.08;;
42346;SDS011;75728;51.856;6.314;2024-02-26T01:48:38;2.70;;;0.95;;
42346;SDS011;75728;51.856;6.314;2024-02-26T01:51:05;2.67;;;1.10;;
42346;SDS011;75728;51.856;6.314;2024-02-26T01:53:31;2.25;;;1.17;;
42346;SDS011;75728;51.856;6.314;2024-02-26T01:55:57;2.20;;;1.30;;
42346;SDS011;75728;51.856;6.314;2024-02-26T01:58:23;2.15;;;1.17;;
42346;SDS011;75728;51.856;6.314;2024-02-26T02:00:48;2.15;;;1.20;;
42346;SDS011;75728;51.856;6.314;2024-02-26T02:03:14;2.25;;;1.20;;
42346;SDS011;75728;51.856;6.314;2024-02-26T02:05:40;2.13;;;1.23;;
42346;SDS011;75728;51.856;6.314;2024-02-26T02:08:10;1.75;;;1.00;;
42346;SDS011;75728;51.856;6.314;2024-02-26T02:10:39;1.70;;;1.00;;
42346;SDS011;75728;51.856;6.314;2024-02-26T02:13:09;2.05;;;1.02;;
42346;SDS011;75728;51.856;6.314;2024-02-26T02:15:34;2.83;;;1.10;;
42346;SDS011;75728;51.856;6.314;2024-02-26T02:18:00;3.15;;;1.25;;
42346;SDS011;75728;51.856;6.314;2024-02-26T02:20:31;2.88;;;1.10;;
42346;SDS011;75728;51.856;6.314;2024-02-26T02:22:59;2.00;;;1.13;;
42346;SDS011;75728;51.856;6.314;2024-02-26T02:25:25;1.45;;;0.93;;
42346;SDS011;75728;51.856;6.314;2024-02-26T02:27:51;2.35;;;1.00;;
42346;SDS011;75728;51.856;6.314;2024-02-26T02:30:20;2.45;;;1.20;;
42346;SDS011;75728;51.856;6.314;2024-02-26T02:32:48;1.73;;;0.93;;
42346;SDS011;75728;51.856;6.314;2024-02-26T02:35:14;2.13;;;1.02;;
42346;SDS011;75728;51.856;6.314;2024-02-26T02:37:40;3.20;;;1.48;;
42346;SDS011;75728;51.856;6.314;2024-02-26T02:40:06;2.72;;;1.25;;
42346;SDS011;75728;51.856;6.314;2024-02-26T02:42:32;2.30;;;1.30;;
42346;SDS011;75728;51.856;6.314;2024-02-26T02:44:57;2.45;;;1.15;;
42346;SDS011;75728;51.856;6.314;2024-02-26T02:47:23;3.00;;;1.40;;
42346;SDS011;75728;51.856;6.314;2024-02-26T02:49:48;2.05;;;1.35;;
42346;SDS011;75728;51.856;6.314;2024-02-26T02:52:14;2.15;;;1.00;;
42346;SDS011;75728;51.856;6.314;2024-02-26T02:54:40;2.42;;;1.00;;
42346;SDS011;75728;51.856;6.314;2024-02-26T02:57:07;2.78;;;1.20;;
42346;SDS011;75728;51.856;6.314;2024-02-26T02:59:36;2.38;;;1.17;;
42346;SDS011;75728;51.856;6.314;2024-02-26T03:02:02;2.70;;;1.25;;
42346;SDS011;75728;51.856;6.314;2024-02-26T03:04:28;3.67;;;1.13;;
42346;SDS011;75728;51.856;6.314;2024-02-26T03:06:54;2.08;;;1.05;;
42346;SDS011;75728;51.856;6.314;2024-02-26T03:09:20;2.40;;;1.10;;
42346;SDS011;75728;51.856;6.314;2024-02-26T03:11:46;2.92;;;0.90;;
42346;SDS011;75728;51.856;6.314;2024-02-26T03:14:11;1.40;;;1.00;;
42346;SDS011;75728;51.856;6.314;2024-02-26T03:16:37;1.70;;;0.90;;
42346;SDS011;75728;51.856;6.314;2024-02-26T03:19:02;1.85;;;1.10;;
42346;SDS011;75728;51.856;6.314;2024-02-26T03:21:28;1.83;;;1.08;;
42346;SDS011;75728;51.856;6.314;2024-02-26T03:23:54;2.05;;;1.13;;
42346;SDS011;75728;51.856;6.314;2024-02-26T03:26:19;2.55;;;1.10;;
42346;SDS011;75728;51.856;6.314;2024-02-26T03:28:46;1.35;;;0.90;;
42346;SDS011;75728;51.856;6.314;2024-02-26T03:31:12;3.72;;;0.90;;
42346;SDS011;75728;51.856;6.314;2024-02-26T03:33:37;2.20;;;1.30;;
42346;SDS011;75728;51.856;6.314;2024-02-26T03:36:03;1.60;;;1.08;;
42346;SDS011;75728;51.856;6.314;2024-02-26T03:38:29;2.67;;;0.95;;
42346;SDS011;75728;51.856;6.314;2024-02-26T03:40:55;3.70;;;1.30;;
42346;SDS011;75728;51.856;6.314;2024-02-26T03:43:21;1.80;;;0.80;;
42346;SDS011;75728;51.856;6.314;2024-02-26T03:45:46;1.40;;;1.00;;
42346;SDS011;75728;51.856;6.314;2024-02-26T03:48:12;1.10;;;0.88;;
42346;SDS011;75728;51.856;6.314;2024-02-26T03:50:38;3.28;;;0.80;;
42346;SDS011;75728;51.856;6.314;2024-02-26T03:53:03;2.28;;;1.00;;
42346;SDS011;75728;51.856;6.314;2024-02-26T03:55:29;1.92;;;1.05;;
42346;SDS011;75728;51.856;6.314;2024-02-26T03:57:55;2.75;;;0.90;;
42346;SDS011;75728;51.856;6.314;2024-02-26T04:00:20;1.73;;;0.90;;
42346;SDS011;75728;51.856;6.314;2024-02-26T04:02:46;1.90;;;0.80;;
42346;SDS011;75728;51.856;6.314;2024-02-26T04:05:12;2.85;;;1.10;;
42346;SDS011;75728;51.856;6.314;2024-02-26T04:07:39;2.05;;;0.93;;
42346;SDS011;75728;51.856;6.314;2024-02-26T04:10:09;1.58;;;0.88;;
42346;SDS011;75728;51.856;6.314;2024-02-26T04:12:35;1.35;;;0.70;;
42346;SDS011;75728;51.856;6.314;2024-02-26T04:15:03;2.05;;;0.90;;
42346;SDS011;75728;51.856;6.314;2024-02-26T04:17:29;2.58;;;1.10;;
42346;SDS011;75728;51.856;6.314;2024-02-26T04:19:55;1.15;;;0.70;;
42346;SDS011;75728;51.856;6.314;2024-02-26T04:22:20;1.95;;;0.90;;
42346;SDS011;75728;51.856;6.314;2024-02-26T04:24:46;1.40;;;0.80;;
42346;SDS011;75728;51.856;6.314;2024-02-26T04:27:12;2.47;;;0.73;;
42346;SDS011;75728;51.856;6.314;2024-02-26T04:29:37;1.33;;;0.75;;
42346;SDS011;75728;51.856;6.314;2024-02-26T04:32:03;1.50;;;0.80;;
42346;SDS011;75728;51.856;6.314;2024-02-26T04:34:30;1.60;;;0.90;;
42346;SDS011;75728;51.856;6.314;2024-02-26T04:36:56;2.15;;;1.00;;
42346;SDS011;75728;51.856;6.314;2024-02-26T04:39:21;1.48;;;0.73;;
42346;SDS011;75728;51.856;6.314;2024-02-26T04:41:47;1.08;;;0.80;;
42346;SDS011;75728;51.856;6.314;2024-02-26T04:44:12;2.72;;;0.90;;
42346;SDS011;75728;51.856;6.314;2024-02-26T04:46:38;1.88;;;0.90;;
42346;SDS011;75728;51.856;6.314;2024-02-26T04:49:04;1.92;;;1.13;;
42346;SDS011;75728;51.856;6.314;2024-02-26T04:51:29;1.90;;;1.15;;
42346;SDS011;75728;51.856;6.314;2024-02-26T04:53:55;2.45;;;0.93;;
42346;SDS011;75728;51.856;6.314;2024-02-26T04:56:21;1.90;;;1.40;;
42346;SDS011;75728;51.856;6.314;2024-02-26T04:58:46;2.13;;;1.20;;
42346;SDS011;75728;51.856;6.314;2024-02-26T05:01:13;1.70;;;1.20;;
42346;SDS011;75728;51.856;6.314;2024-02-26T05:03:38;2.15;;;1.30;;
42346;SDS011;75728;51.856;6.314;2024-02-26T05:06:04;2.70;;;1.23;;
42346;SDS011;75728;51.856;6.314;2024-02-26T05:08:30;2.13;;;1.25;;
42346;SDS011;75728;51.856;6.314;2024-02-26T05:10:56;2.25;;;1.20;;
42346;SDS011;75728;51.856;6.314;2024-02-26T05:13:22;2.20;;;1.40;;
42346;SDS011;75728;51.856;6.314;2024-02-26T05:15:47;2.35;;;1.40;;
42346;SDS011;75728;51.856;6.314;2024-02-26T05:18:14;2.88;;;1.67;;
42346;SDS011;75728;51.856;6.314;2024-02-26T05:20:40;1.95;;;1.27;;
42346;SDS011;75728;51.856;6.314;2024-02-26T05:23:06;2.15;;;1.30;;
42346;SDS011;75728;51.856;6.314;2024-02-26T05:25:31;2.35;;;1.60;;
42346;SDS011;75728;51.856;6.314;2024-02-26T05:27:57;2.17;;;1.30;;
42346;SDS011;75728;51.856;6.314;2024-02-26T05:30:23;3.15;;;1.55;;
42346;SDS011;75728;51.856;6.314;2024-02-26T05:32:48;2.50;;;1.38;;
42346;SDS011;75728;51.856;6.314;2024-02-26T05:35:14;1.98;;;1.50;;
42346;SDS011;75728;51.856;6.314;2024-02-26T05:37:40;1.85;;;1.20;;
42346;SDS011;75728;51.856;6.314;2024-02-26T05:40:05;2.58;;;1.40;;
42346;SDS011;75728;51.856;6.314;2024-02-26T05:42:31;2.38;;;1.45;;
42346;SDS011;75728;51.856;6.314;2024-02-26T05:44:58;3.05;;;1.25;;
42346;SDS011;75728;51.856;6.314;2024-02-26T05:47:24;1.90;;;1.27;;
42346;SDS011;75728;51.856;6.314;2024-02-26T05:49:49;2.83;;;1.50;;
42346;SDS011;75728;51.856;6.314;2024-02-26T05:52:15;2.10;;;1.40;;
42346;SDS011;75728;51.856;6.314;2024-02-26T05:54:40;1.88;;;1.23;;
42346;SDS011;75728;51.856;6.314;2024-02-26T05:57:06;2.28;;;1.25;;
42346;SDS011;75728;51.856;6.314;2024-02-26T05:59:32;3.08;;;1.55;;
42346;SDS011;75728;51.856;6.314;2024-02-26T06:01:57;1.90;;;1.30;;
42346;SDS011;75728;51.856;6.314;2024-02-26T06:04:23;1.23;;;0.85;;
42346;SDS011;75728;51.856;6.314;2024-02-26T06:06:49;1.60;;;1.00;;
42346;SDS011;75728;51.856;6.314;2024-02-26T06:09:15;1.70;;;1.10;;
42346;SDS011;75728;51.856;6.314;2024-02-26T06:11:40;2.65;;;1.02;;
42346;SDS011;75728;51.856;6.314;2024-02-26T06:14:06;1.88;;;1.10;;
42346;SDS011;75728;51.856;6.314;2024-02-26T06:16:31;1.75;;;1.10;;
42346;SDS011;75728;51.856;6.314;2024-02-26T06:18:58;1.65;;;1.00;;
42346;SDS011;75728;51.856;6.314;2024-02-26T06:21:25;2.13;;;1.30;;
42346;SDS011;75728;51.856;6.314;2024-02-26T06:23:51;1.42;;;1.00;;
42346;SDS011;75728;51.856;6.314;2024-02-26T06:26:16;2.17;;;1.25;;
42346;SDS011;75728;51.856;6.314;2024-02-26T06:28:42;1.58;;;0.90;;
42346;SDS011;75728;51.856;6.314;2024-02-26T06:31:08;1.83;;;1.02;;
42346;SDS011;75728;51.856;6.314;2024-02-26T06:33:33;1.17;;;0.90;;
42346;SDS011;75728;51.856;6.314;2024-02-26T06:35:59;1.20;;;0.90;;
42346;SDS011;75728;51.856;6.314;2024-02-26T06:38:25;1.58;;;0.93;;
42346;SDS011;75728;51.856;6.314;2024-02-26T06:40:50;1.73;;;0.95;;
42346;SDS011;75728;51.856;6.314;2024-02-26T06:43:16;2.88;;;1.20;;
42346;SDS011;75728;51.856;6.314;2024-02-26T06:45:42;2.85;;;1.05;;
42346;SDS011;75728;51.856;6.314;2024-02-26T06:48:07;1.35;;;0.80;;
42346;SDS011;75728;51.856;6.314;2024-02-26T06:50:33;1.63;;;0.90;;
42346;SDS011;75728;51.856;6.314;2024-02-26T06:52:59;1.80;;;0.98;;
42346;SDS011;75728;51.856;6.314;2024-02-26T06:55:24;1.65;;;0.90;;
42346;SDS011;75728;51.856;6.314;2024-02-26T06:57:50;4.43;;;0.85;;
42346;SDS011;75728;51.856;6.314;2024-02-26T07:00:16;1.98;;;1.00;;
42346;SDS011;75728;51.856;6.314;2024-02-26T07:02:42;1.90;;;1.00;;
42346;SDS011;75728;51.856;6.314;2024-02-26T07:05:08;2.47;;;1.20;;
42346;SDS011;75728;51.856;6.314;2024-02-26T07:07:34;1.85;;;0.98;;
42346;SDS011;75728;51.856;6.314;2024-02-26T07:10:00;1.60;;;1.00;;
42346;SDS011;75728;51.856;6.314;2024-02-26T07:12:28;1.95;;;0.90;;
42346;SDS011;75728;51.856;6.314;2024-02-26T07:14:54;1.23;;;0.82;;
42346;SDS011;75728;51.856;6.314;2024-02-26T07:17:20;1.02;;;0.80;;
42346;SDS011;75728;51.856;6.314;2024-02-26T07:19:45;1.42;;;1.02;;
42346;SDS011;75728;51.856;6.314;2024-02-26T07:22:11;2.13;;;1.13;;
42346;SDS011;75728;51.856;6.314;2024-02-26T07:24:37;1.52;;;0.95;;
42346;SDS011;75728;51.856;6.314;2024-02-26T07:27:03;2.00;;;0.80;;
42346;SDS011;75728;51.856;6.314;2024-02-26T07:29:28;2.58;;;1.10;;
42346;SDS011;75728;51.856;6.314;2024-02-26T07:31:54;1.58;;;1.05;;
42346;SDS011;75728;51.856;6.314;2024-02-26T07:34:20;1.48;;;1.10;;
42346;SDS011;75728;51.856;6.314;2024-02-26T07:36:52;2.17;;;1.00;;
42346;SDS011;75728;51.856;6.314;2024-02-26T07:39:18;1.88;;;1.05;;
42346;SDS011;75728;51.856;6.314;2024-02-26T07:41:44;2.78;;;1.15;;
42346;SDS011;75728;51.856;6.314;2024-02-26T07:44:12;1.85;;;1.23;;
42346;SDS011;75728;51.856;6.314;2024-02-26T07:46:37;2.05;;;1.25;;
42346;SDS011;75728;51.856;6.314;2024-02-26T07:49:03;2.35;;;1.13;;
42346;SDS011;75728;51.856;6.314;2024-02-26T07:51:28;1.73;;;1.38;;
42346;SDS011;75728;51.856;6.314;2024-02-26T07:53:54;2.53;;;1.70;;
42346;SDS011;75728;51.856;6.314;2024-02-26T07:56:19;1.42;;;1.00;;
42346;SDS011;75728;51.856;6.314;2024-02-26T07:58:45;3.35;;;1.20;;
42346;SDS011;75728;51.856;6.314;2024-02-26T08:01:13;2.10;;;1.30;;
42346;SDS011;75728;51.856;6.314;2024-02-26T08:03:39;1.85;;;1.42;;
42346;SDS011;75728;51.856;6.314;2024-02-26T08:06:05;1.88;;;1.10;;
42346;SDS011;75728;51.856;6.314;2024-02-26T08:08:31;2.13;;;1.10;;
42346;SDS011;75728;51.856;6.314;2024-02-26T08:10:56;1.95;;;1.30;;
42346;SDS011;75728;51.856;6.314;2024-02-26T08:13:22;2.35;;;1.77;;
42346;SDS011;75728;51.856;6.314;2024-02-26T08:15:47;1.90;;;1.10;;
42346;SDS011;75728;51.856;6.314;2024-02-26T08:18:13;3.15;;;1.30;;
42346;SDS011;75728;51.856;6.314;2024-02-26T08:20:39;2.20;;;1.13;;
42346;SDS011;75728;51.856;6.314;2024-02-26T08:23:04;1.50;;;0.98;;
42346;SDS011;75728;51.856;6.314;2024-02-26T08:25:30;2.50;;;1.40;;
42346;SDS011;75728;51.856;6.314;2024-02-26T08:27:55;2.42;;;1.17;;
42346;SDS011;75728;51.856;6.314;2024-02-26T08:30:21;1.77;;;1.17;;
42346;SDS011;75728;51.856;6.314;2024-02-26T08:32:47;1.70;;;1.02;;
42346;SDS011;75728;51.856;6.314;2024-02-26T08:35:13;1.98;;;1.00;;
42346;SDS011;75728;51.856;6.314;2024-02-26T08:37:39;1.98;;;1.23;;
42346;SDS011;75728;51.856;6.314;2024-02-26T08:40:05;2.38;;;1.20;;
42346;SDS011;75728;51.856;6.314;2024-02-26T08:42:31;2.08;;;1.10;;
42346;SDS011;75728;51.856;6.314;2024-02-26T08:44:57;1.70;;;1.00;;
42346;SDS011;75728;51.856;6.314;2024-02-26T08:47:25;2.85;;;1.10;;
42346;SDS011;75728;51.856;6.314;2024-02-26T08:49:51;1.65;;;1.10;;
42346;SDS011;75728;51.856;6.314;2024-02-26T08:52:16;1.38;;;1.05;;
42346;SDS011;75728;51.856;6.314;2024-02-26T08:54:42;1.65;;;1.10;;
42346;SDS011;75728;51.856;6.314;2024-02-26T08:57:07;2.72;;;1.20;;
42346;SDS011;75728;51.856;6.314;2024-02-26T08:59:33;1.90;;;1.10;;
42346;SDS011;75728;51.856;6.314;2024-02-26T09:01:59;3.38;;;1.40;;
42346;SDS011;75728;51.856;6.314;2024-02-26T09:04:24;2.05;;;1.35;;
42346;SDS011;75728;51.856;6.314;2024-02-26T09:06:51;2.15;;;1.40;;
42346;SDS011;75728;51.856;6.314;2024-02-26T09:09:17;2.50;;;1.27;;
42346;SDS011;75728;51.856;6.314;2024-02-26T09:11:42;2.65;;;1.33;;
42346;SDS011;75728;51.856;6.314;2024-02-26T09:14:08;2.00;;;1.13;;
42346;SDS011;75728;51.856;6.314;2024-02-26T09:16:34;2.00;;;1.52;;
42346;SDS011;75728;51.856;6.314;2024-02-26T09:18:59;3.17;;;1.60;;
42346;SDS011;75728;51.856;6.314;2024-02-26T09:21:27;2.22;;;1.60;;
42346;SDS011;75728;51.856;6.314;2024-02-26T09:23:53;2.92;;;1.85;;
42346;SDS011;75728;51.856;6.314;2024-02-26T09:26:19;2.97;;;1.80;;
42346;SDS011;75728;51.856;6.314;2024-02-26T09:28:45;2.70;;;1.70;;
42346;SDS011;75728;51.856;6.314;2024-02-26T09:31:11;2.65;;;1.70;;
42346;SDS011;75728;51.856;6.314;2024-02-26T09:33:37;2.28;;;1.77;;
42346;SDS011;75728;51.856;6.314;2024-02-26T09:36:03;2.30;;;1.67;;
42346;SDS011;75728;51.856;6.314;2024-02-26T09:38:31;3.33;;;2.00;;
42346;SDS011;75728;51.856;6.314;2024-02-26T09:41:01;2.92;;;1.90;;
42346;SDS011;75728;51.856;6.314;2024-02-26T09:43:27;4.82;;;2.00;;
42346;SDS011;75728;51.856;6.314;2024-02-26T09:45:59;3.03;;;2.10;;
42346;SDS011;75728;51.856;6.314;2024-02-26T09:48:25;3.13;;;2.13;;
42346;SDS011;75728;51.856;6.314;2024-02-26T09:50:51;2.88;;;2.28;;
42346;SDS011;75728;51.856;6.314;2024-02-26T09:53:17;5.80;;;2.30;;
42346;SDS011;75728;51.856;6.314;2024-02-26T09:55:46;4.07;;;2.40;;
42346;SDS011;75728;51.856;6.314;2024-02-26T09:58:12;3.70;;;2.42;;
42346;SDS011;75728;51.856;6.314;2024-02-26T10:00:43;3.22;;;2.10;;
42346;SDS011;75728;51.856;6.314;2024-02-26T10:03:15;3.28;;;2.47;;
42346;SDS011;75728;51.856;6.314;2024-02-26T10:05:43;4.03;;;2.58;;
42346;SDS011;75728;51.856;6.314;2024-02-26T10:08:10;3.20;;;2.40;;
42346;SDS011;75728;51.856;6.314;2024-02-26T10:10:37;3.63;;;2.70;;
42346;SDS011;75728;51.856;6.314;2024-02-26T10:13:04;4.10;;;3.08;;
42346;SDS011;75728;51.856;6.314;2024-02-26T10:15:35;5.63;;;2.92;;
42346;SDS011;75728;51.856;6.314;2024-02-26T10:18:03;4.63;;;2.63;;
42346;SDS011;75728;51.856;6.314;2024-02-26T10:20:30;3.80;;;2.22;;
42346;SDS011;75728;51.856;6.314;2024-02-26T10:22:56;4.78;;;3.20;;
42346;SDS011;75728;51.856;6.314;2024-02-26T10:25:22;3.50;;;2.58;;
42346;SDS011;75728;51.856;6.314;2024-02-26T10:27:48;3.78;;;2.42;;
42346;SDS011;75728;51.856;6.314;2024-02-26T10:30:21;4.30;;;2.58;;
42346;SDS011;75728;51.856;6.314;2024-02-26T10:32:48;4.63;;;2.58;;
42346;SDS011;75728;51.856;6.314;2024-02-26T10:35:15;4.13;;;2.83;;
42346;SDS011;75728;51.856;6.314;2024-02-26T10:37:42;5.28;;;3.17;;
42346;SDS011;75728;51.856;6.314;2024-02-26T10:40:15;4.22;;;3.17;;
42346;SDS011;75728;51.856;6.314;2024-02-26T10:42:41;4.05;;;2.90;;
42346;SDS011;75728;51.856;6.314;2024-02-26T10:45:08;5.40;;;3.33;;
42346;SDS011;75728;51.856;6.314;2024-02-26T10:47:35;5.15;;;3.47;;
42346;SDS011;75728;51.856;6.314;2024-02-26T10:50:02;4.43;;;3.30;;
42346;SDS011;75728;51.856;6.314;2024-02-26T10:52:32;4.75;;;3.10;;
42346;SDS011;75728;51.856;6.314;2024-02-26T10:55:03;4.53;;;2.97;;
42346;SDS011;75728;51.856;6.314;2024-02-26T10:57:33;5.10;;;3.58;;
42346;SDS011;75728;51.856;6.314;2024-02-26T11:00:03;5.03;;;3.58;;
42346;SDS011;75728;51.856;6.314;2024-02-26T11:02:31;5.72;;;4.00;;
42346;SDS011;75728;51.856;6.314;2024-02-26T11:04:59;5.18;;;3.75;;
42346;SDS011;75728;51.856;6.314;2024-02-26T11:07:28;5.00;;;3.90;;
42346;SDS011;75728;51.856;6.314;2024-02-26T11:09:55;6.43;;;4.28;;
42346;SDS011;75728;51.856;6.314;2024-02-26T11:12:22;5.35;;;4.10;;
42346;SDS011;75728;51.856;6.314;2024-02-26T11:14:49;6.60;;;4.53;;
42346;SDS011;75728;51.856;6.314;2024-02-26T11:17:19;7.13;;;4.60;;
42346;SDS011;75728;51.856;6.314;2024-02-26T11:19:47;5.43;;;4.13;;
42346;SDS011;75728;51.856;6.314;2024-02-26T11:22:14;7.10;;;4.80;;
42346;SDS011;75728;51.856;6.314;2024-02-26T11:24:40;7.18;;;4.70;;
42346;SDS011;75728;51.856;6.314;2024-02-26T11:27:08;7.05;;;4.88;;
42346;SDS011;75728;51.856;6.314;2024-02-26T11:29:47;6.50;;;5.18;;
42346;SDS011;75728;51.856;6.314;2024-02-26T11:32:15;8.15;;;5.35;;
42346;SDS011;75728;51.856;6.314;2024-02-26T11:34:42;8.43;;;6.57;;
42346;SDS011;75728;51.856;6.314;2024-02-26T11:37:14;8.63;;;6.28;;
42346;SDS011;75728;51.856;6.314;2024-02-26T11:39:42;7.55;;;5.78;;
42346;SDS011;75728;51.856;6.314;2024-02-26T11:42:10;8.38;;;6.35;;
42346;SDS011;75728;51.856;6.314;2024-02-26T11:44:39;9.48;;;6.35;;
42346;SDS011;75728;51.856;6.314;2024-02-26T11:47:13;8.50;;;6.28;;
42346;SDS011;75728;51.856;6.314;2024-02-26T11:49:48;8.40;;;6.13;;
42346;SDS011;75728;51.856;6.314;2024-02-26T11:52:14;9.00;;;6.25;;
42346;SDS011;75728;51.856;6.314;2024-02-26T11:57:29;8.73;;;6.75;;
42346;SDS011;75728;51.856;6.314;2024-02-26T12:05:14;10.40;;;7.85;;
42346;SDS011;75728;51.856;6.314;2024-02-26T12:08:26;8.70;;;6.47;;
42346;SDS011;75728;51.856;6.314;2024-02-26T12:10:34;8.70;;;6.80;;
42346;SDS011;75728;51.856;6.314;2024-02-26T12:13:10;9.07;;;6.97;;
42346;SDS011;75728;51.856;6.314;2024-02-26T12:15:42;10.25;;;7.10;;
42346;SDS011;75728;51.856;6.314;2024-02-26T12:18:09;10.50;;;7.30;;
42346;SDS011;75728;51.856;6.314;2024-02-26T12:20:36;9.10;;;6.55;;
42346;SDS011;75728;51.856;6.314;2024-02-26T12:23:02;10.10;;;7.90;;
42346;SDS011;75728;51.856;6.314;2024-02-26T12:25:31;9.77;;;7.13;;
42346;SDS011;75728;51.856;6.314;2024-02-26T12:27:58;9.88;;;7.63;;
42346;SDS011;75728;51.856;6.314;2024-02-26T12:30:24;9.80;;;6.80;;
42346;SDS011;75728;51.856;6.314;2024-02-26T12:32:51;8.35;;;6.97;;
42346;SDS011;75728;51.856;6.314;2024-02-26T12:35:17;6.80;;;5.82;;
42346;SDS011;75728;51.856;6.314;2024-02-26T12:37:43;7.75;;;6.07;;
42346;SDS011;75728;51.856;6.314;2024-02-26T12:40:10;8.02;;;6.07;;
42346;SDS011;75728;51.856;6.314;2024-02-26T12:42:36;9.38;;;5.70;;
42346;SDS011;75728;51.856;6.314;2024-02-26T12:45:14;7.57;;;5.75;;
42346;SDS011;75728;51.856;6.314;2024-02-26T12:47:45;8.32;;;5.38;;
42346;SDS011;75728;51.856;6.314;2024-02-26T12:50:11;7.68;;;5.60;;
42346;SDS011;75728;51.856;6.314;2024-02-26T12:52:44;6.65;;;5.30;;
42346;SDS011;75728;51.856;6.314;2024-02-26T12:55:16;9.05;;;5.10;;
42346;SDS011;75728;51.856;6.314;2024-02-26T12:57:46;7.03;;;4.97;;
42346;SDS011;75728;51.856;6.314;2024-02-26T13:00:15;8.35;;;4.68;;
42346;SDS011;75728;51.856;6.314;2024-02-26T13:02:43;6.82;;;4.80;;
42346;SDS011;75728;51.856;6.314;2024-02-26T13:05:10;5.95;;;4.18;;
42346;SDS011;75728;51.856;6.314;2024-02-26T13:07:44;6.28;;;4.38;;
42346;SDS011;75728;51.856;6.314;2024-02-26T13:10:12;5.72;;;4.28;;
42346;SDS011;75728;51.856;6.314;2024-02-26T13:12:45;5.63;;;3.90;;
42346;SDS011;75728;51.856;6.314;2024-02-26T13:15:16;9.48;;;4.53;;
42346;SDS011;75728;51.856;6.314;2024-02-26T13:17:43;6.88;;;3.90;;
42346;SDS011;75728;51.856;6.314;2024-02-26T13:20:09;5.97;;;3.95;;
42346;SDS011;75728;51.856;6.314;2024-02-26T13:22:36;5.43;;;4.32;;
42346;SDS011;75728;51.856;6.314;2024-02-26T13:25:02;5.72;;;3.72;;
42346;SDS011;75728;51.856;6.314;2024-02-26T13:27:28;5.07;;;3.80;;
42346;SDS011;75728;51.856;6.314;2024-02-26T13:30:04;5.53;;;3.67;;
42346;SDS011;75728;51.856;6.314;2024-02-26T13:32:35;6.40;;;3.92;;
42346;SDS011;75728;51.856;6.314;2024-02-26T13:35:09;5.72;;;3.85;;
42346;SDS011;75728;51.856;6.314;2024-02-26T13:37:35;4.60;;;3.30;;
42346;SDS011;75728;51.856;6.314;2024-02-26T13:40:20;5.18;;;3.80;;
42346;SDS011;75728;51.856;6.314;2024-02-26T13:42:46;4.45;;;3.40;;
42346;SDS011;75728;51.856;6.314;2024-02-26T13:45:13;4.97;;;3.72;;
42346;SDS011;75728;51.856;6.314;2024-02-26T13:47:38;4.45;;;3.55;;
42346;SDS011;75728;51.856;6.314;2024-02-26T13:50:05;5.43;;;3.63;;
42346;SDS011;75728;51.856;6.314;2024-02-26T13:52:31;4.88;;;3.38;;
42346;SDS011;75728;51.856;6.314;2024-02-26T13:54:57;5.00;;;3.53;;
42346;SDS011;75728;51.856;6.314;2024-02-26T13:57:24;5.38;;;3.83;;
42346;SDS011;75728;51.856;6.314;2024-02-26T13:59:50;5.93;;;4.00;;
42346;SDS011;75728;51.856;6.314;2024-02-26T14:02:16;4.60;;;3.50;;
42346;SDS011;75728;51.856;6.314;2024-02-26T14:04:42;6.10;;;4.03;;
42346;SDS011;75728;51.856;6.314;2024-02-26T14:07:08;5.88;;;3.03;;
42346;SDS011;75728;51.856;6.314;2024-02-26T14:09:35;4.78;;;3.30;;
42346;SDS011;75728;51.856;6.314;2024-02-26T14:12:01;4.10;;;3.45;;
42346;SDS011;75728;51.856;6.314;2024-02-26T14:14:29;4.38;;;3.40;;
42346;SDS011;75728;51.856;6.314;2024-02-26T14:16:58;6.90;;;3.55;;
42346;SDS011;75728;51.856;6.314;2024-02-26T14:19:23;5.53;;;3.50;;
42346;SDS011;75728;51.856;6.314;2024-02-26T14:21:49;4.93;;;3.60;;
42346;SDS011;75728;51.856;6.314;2024-02-26T14:24:15;4.68;;;3.60;;
42346;SDS011;75728;51.856;6.314;2024-02-26T14:26:40;4.30;;;3.22;;
42346;SDS011;75728;51.856;6.314;2024-02-26T14:29:06;5.55;;;3.78;;
42346;SDS011;75728;51.856;6.314;2024-02-26T14:31:32;4.30;;;3.47;;
42346;SDS011;75728;51.856;6.314;2024-02-26T14:33:58;7.03;;;4.30;;
42346;SDS011;75728;51.856;6.314;2024-02-26T14:36:23;7.68;;;3.95;;
42346;SDS011;75728;51.856;6.314;2024-02-26T14:38:49;4.45;;;3.25;;
42346;SDS011;75728;51.856;6.314;2024-02-26T14:41:16;5.50;;;3.80;;
42346;SDS011;75728;51.856;6.314;2024-02-26T14:43:41;5.80;;;3.60;;
42346;SDS011;75728;51.856;6.314;2024-02-26T14:46:07;4.50;;;3.30;;
42346;SDS011;75728;51.856;6.314;2024-02-26T14:48:33;5.53;;;3.63;;
42346;SDS011;75728;51.856;6.314;2024-02-26T14:50:59;4.85;;;3.45;;
42346;SDS011;75728;51.856;6.314;2024-02-26T14:53:25;5.75;;;3.75;;